createdAt,value
2022-09-09T00:02:09.720Z,17.08
2022-09-09T00:04:39.801Z,17.07
2022-09-09T00:07:14.495Z,17.05
2022-09-09T00:09:50.334Z,17.03
2022-09-09T00:12:23.389Z,17.00
2022-09-09T00:15:08.971Z,16.97
2022-09-09T00:17:42.543Z,16.95
2022-09-09T00:20:43.349Z,16.94
2022-09-09T00:23:25.865Z,16.92
2022-09-09T00:26:02.483Z,16.90
2022-09-09T00:28:35.490Z,16.89
2022-09-09T00:31:13.790Z,16.88
2022-09-09T00:33:44.310Z,16.85
2022-09-09T00:36:17.823Z,16.79
2022-09-09T00:38:50.381Z,16.76
2022-09-09T00:41:26.869Z,16.74
2022-09-09T00:44:04.414Z,16.72
2022-09-09T00:46:50.985Z,16.69
2022-09-09T00:49:36.962Z,16.65
2022-09-09T00:52:20.739Z,16.62
2022-09-09T00:55:04.270Z,16.59
2022-09-09T00:57:39.382Z,16.57
2022-09-09T01:00:22.360Z,16.53
2022-09-09T01:03:09.745Z,16.50
2022-09-09T01:05:58.718Z,16.44
2022-09-09T01:08:32.754Z,16.40
2022-09-09T01:11:01.286Z,16.38
2022-09-09T01:13:31.600Z,16.34
2022-09-09T01:16:06.965Z,16.31
2022-09-09T01:18:42.733Z,16.27
2022-09-09T01:21:38.780Z,16.23
2022-09-09T01:24:31.178Z,16.21
2022-09-09T01:27:07.553Z,16.17
2022-09-09T01:29:35.281Z,16.15
2022-09-09T01:32:24.480Z,16.09
2022-09-09T01:34:53.199Z,16.06
2022-09-09T01:37:20.876Z,16.02
2022-09-09T01:39:48.763Z,15.98
2022-09-09T01:42:17.788Z,15.96
2022-09-09T01:44:45.476Z,15.93
2022-09-09T01:47:13.274Z,15.90
2022-09-09T01:49:41.237Z,15.86
2022-09-09T01:52:09.976Z,15.83
2022-09-09T01:54:38.099Z,15.81
2022-09-09T01:57:21.516Z,15.77
2022-09-09T02:00:10.667Z,15.75
2022-09-09T02:03:06.191Z,15.71
2022-09-09T02:05:37.837Z,15.64
2022-09-09T02:08:43.409Z,15.64
2022-09-09T02:11:23.970Z,15.62
2022-09-09T02:13:59.121Z,15.58
2022-09-09T02:16:33.281Z,15.56
2022-09-09T02:19:24.973Z,15.58
2022-09-09T02:21:56.263Z,15.59
2022-09-09T02:24:27.319Z,15.56
2022-09-09T02:26:58.536Z,15.53
2022-09-09T02:29:31.574Z,15.48
2022-09-09T02:32:05.140Z,15.44
2022-09-09T02:34:38.268Z,15.43
2022-09-09T02:37:09.251Z,15.39
2022-09-09T02:39:37.605Z,15.39
2022-09-09T02:42:06.388Z,15.35
2022-09-09T02:44:34.340Z,15.34
2022-09-09T02:47:13.962Z,15.31
2022-09-09T02:49:51.603Z,15.30
2022-09-09T02:52:32.024Z,15.25
2022-09-09T02:55:11.006Z,15.19
2022-09-09T02:57:40.134Z,15.11
2022-09-09T03:00:08.742Z,15.06
2022-09-09T03:02:36.529Z,15.02
2022-09-09T03:05:06.114Z,14.99
2022-09-09T03:07:34.492Z,14.97
2022-09-09T03:10:02.573Z,14.94
2022-09-09T03:12:30.449Z,14.94
2022-09-09T03:14:58.275Z,14.93
2022-09-09T03:17:26.885Z,14.91
2022-09-09T03:19:56.117Z,14.88
2022-09-09T03:22:23.871Z,14.87
2022-09-09T03:24:51.761Z,14.87
2022-09-09T03:27:20.629Z,14.85
2022-09-09T03:29:51.130Z,14.84
2022-09-09T03:32:20.033Z,14.83
2022-09-09T03:34:48.522Z,14.80
2022-09-09T03:37:18.831Z,14.76
2022-09-09T03:39:46.895Z,14.73
2022-09-09T03:42:15.893Z,14.69
2022-09-09T03:44:44.388Z,14.63
2022-09-09T03:47:12.164Z,14.61
2022-09-09T03:49:39.964Z,14.60
2022-09-09T03:52:09.208Z,14.57
2022-09-09T03:54:37.100Z,14.52
2022-09-09T03:57:05.882Z,14.46
2022-09-09T03:59:33.550Z,14.39
2022-09-09T04:02:01.747Z,14.41
2022-09-09T04:04:29.466Z,14.40
2022-09-09T04:06:57.467Z,14.39
2022-09-09T04:09:25.395Z,14.39
2022-09-09T04:11:54.200Z,14.35
2022-09-09T04:14:23.099Z,14.28
2022-09-09T04:16:50.864Z,14.30
2022-09-09T04:19:18.694Z,14.32
2022-09-09T04:21:46.566Z,14.34
2022-09-09T04:24:14.256Z,14.34
2022-09-09T04:26:42.747Z,14.35
2022-09-09T04:29:10.832Z,14.34
2022-09-09T04:31:43.061Z,14.30
2022-09-09T04:34:11.267Z,14.29
2022-09-09T04:36:41.375Z,14.29
2022-09-09T04:39:09.163Z,14.31
2022-09-09T04:41:36.898Z,14.31
2022-09-09T04:44:04.760Z,14.31
2022-09-09T04:46:32.466Z,14.31
2022-09-09T04:49:00.189Z,14.35
2022-09-09T04:51:28.094Z,14.33
2022-09-09T04:53:55.921Z,14.36
2022-09-09T04:56:23.892Z,14.42
2022-09-09T04:58:51.674Z,14.50
2022-09-09T05:01:23.113Z,14.72
2022-09-09T05:03:53.156Z,14.94
2022-09-09T05:06:23.112Z,14.97
2022-09-09T05:08:51.621Z,15.04
2022-09-09T05:11:28.413Z,15.15
2022-09-09T05:13:57.570Z,15.36
2022-09-09T05:16:25.804Z,15.36
2022-09-09T05:18:53.585Z,15.37
2022-09-09T05:21:24.109Z,15.33
2022-09-09T05:23:54.664Z,15.30
2022-09-09T05:26:23.822Z,15.31
2022-09-09T05:28:51.564Z,15.36
2022-09-09T05:31:20.498Z,15.44
2022-09-09T05:33:50.523Z,15.56
2022-09-09T05:36:21.264Z,15.66
2022-09-09T05:38:50.925Z,15.77
2022-09-09T05:41:18.955Z,15.91
2022-09-09T05:43:50.600Z,16.03
2022-09-09T05:46:21.603Z,16.10
2022-09-09T05:48:52.082Z,16.19
2022-09-09T05:51:25.640Z,16.32
2022-09-09T05:53:56.287Z,16.28
2022-09-09T05:56:26.798Z,16.33
2022-09-09T05:58:55.910Z,16.48
2022-09-09T06:01:25.240Z,16.60
2022-09-09T06:03:54.072Z,16.71
2022-09-09T06:06:26.469Z,16.79
2022-09-09T06:08:59.172Z,16.89
2022-09-09T06:11:33.281Z,16.94
2022-09-09T06:14:01.572Z,16.88
2022-09-09T06:16:31.054Z,16.96
2022-09-09T06:18:59.374Z,17.06
2022-09-09T06:21:41.832Z,17.12
2022-09-09T06:24:09.885Z,17.14
2022-09-09T06:26:42.750Z,17.15
2022-09-09T06:29:11.203Z,17.27
2022-09-09T06:31:39.422Z,17.29
2022-09-09T06:34:08.986Z,17.40
2022-09-09T06:36:39.121Z,17.50
2022-09-09T06:39:14.191Z,17.57
2022-09-09T06:41:43.835Z,17.65
2022-09-09T06:44:12.990Z,17.83
2022-09-09T06:46:41.280Z,18.01
2022-09-09T06:49:10.213Z,18.15
2022-09-09T06:51:44.126Z,18.24
2022-09-09T06:54:13.278Z,18.43
2022-09-09T06:56:44.047Z,18.65
2022-09-09T06:59:13.289Z,18.78
2022-09-09T07:01:44.854Z,18.92
2022-09-09T07:04:13.669Z,19.04
2022-09-09T07:06:44.488Z,19.21
2022-09-09T07:09:14.333Z,19.35
2022-09-09T07:11:52.617Z,19.50
2022-09-09T07:14:20.741Z,19.59
2022-09-09T07:16:48.631Z,19.59
2022-09-09T07:19:16.653Z,19.54
2022-09-09T07:21:45.055Z,19.54
2022-09-09T07:24:13.821Z,19.56
2022-09-09T07:26:42.223Z,19.52
2022-09-09T07:29:10.063Z,19.50
2022-09-09T07:31:40.852Z,19.46
2022-09-09T07:34:08.857Z,19.46
2022-09-09T07:36:39.590Z,19.41
2022-09-09T07:39:10.280Z,19.43
2022-09-09T07:41:41.059Z,19.43
2022-09-09T07:44:18.165Z,19.45
2022-09-09T07:46:46.752Z,19.48
2022-09-09T07:49:16.226Z,19.54
2022-09-09T07:51:46.909Z,19.55
2022-09-09T07:54:18.360Z,19.60
2022-09-09T07:56:46.108Z,19.68
2022-09-09T07:59:14.706Z,19.72
2022-09-09T08:01:51.313Z,19.81
2022-09-09T08:04:20.770Z,19.82
2022-09-09T08:06:49.907Z,19.85
2022-09-09T08:09:18.328Z,19.89
2022-09-09T08:11:46.336Z,19.96
2022-09-09T08:14:14.440Z,20.00
2022-09-09T08:16:46.091Z,20.04
2022-09-09T08:19:16.866Z,20.14
2022-09-09T08:21:45.893Z,20.18
2022-09-09T08:24:17.631Z,20.19
2022-09-09T08:26:49.489Z,20.21
2022-09-09T08:29:18.695Z,20.23
2022-09-09T08:31:52.296Z,20.26
2022-09-09T08:34:21.205Z,20.20
2022-09-09T08:36:50.916Z,20.17
2022-09-09T08:39:21.569Z,20.28
2022-09-09T08:42:15.136Z,20.41
2022-09-09T08:45:04.255Z,20.49
2022-09-09T08:48:08.095Z,20.50
2022-09-09T08:50:39.622Z,20.61
2022-09-09T08:53:34.286Z,20.54
2022-09-09T08:56:10.270Z,20.48
2022-09-09T08:58:50.286Z,20.58
2022-09-09T09:01:42.953Z,20.51
2022-09-09T09:04:20.640Z,20.54
2022-09-09T09:07:16.364Z,20.62
2022-09-09T09:10:02.384Z,20.86
2022-09-09T09:12:38.037Z,20.99
2022-09-09T09:15:18.121Z,21.14
2022-09-09T09:17:46.371Z,21.21
2022-09-09T09:20:16.352Z,21.22
2022-09-09T09:22:52.989Z,21.24
2022-09-09T09:25:32.811Z,21.34
2022-09-09T09:28:24.426Z,21.47
2022-09-09T09:31:05.116Z,21.46
2022-09-09T09:33:35.763Z,21.48
2022-09-09T09:36:04.389Z,21.48
2022-09-09T09:41:43.993Z,21.68
2022-09-09T09:44:33.608Z,21.71
2022-09-09T09:47:11.968Z,21.67
2022-09-09T09:49:40.780Z,21.68
2022-09-09T09:52:19.172Z,21.73
2022-09-09T09:54:46.848Z,21.79
2022-09-09T09:57:17.608Z,21.81
2022-09-09T09:59:46.768Z,21.74
2022-09-09T10:02:15.781Z,21.76
2022-09-09T10:04:44.154Z,21.74
2022-09-09T10:07:23.377Z,21.82
2022-09-09T10:09:55.972Z,21.85
2022-09-09T10:12:32.960Z,21.83
2022-09-09T10:15:23.278Z,21.91
2022-09-09T10:18:46.142Z,21.93
2022-09-09T10:21:39.001Z,21.81
2022-09-09T10:24:31.476Z,21.88
2022-09-09T10:26:59.369Z,22.06
2022-09-09T10:29:53.496Z,22.19
2022-09-09T10:32:41.473Z,22.26
2022-09-09T10:35:37.832Z,22.32
2022-09-09T10:38:14.806Z,22.46
2022-09-09T10:40:52.433Z,22.43
2022-09-09T10:43:26.032Z,22.58
2022-09-09T10:46:08.899Z,22.54
2022-09-09T10:48:39.434Z,22.33
2022-09-09T10:51:07.340Z,22.53
2022-09-09T10:53:54.069Z,22.58
2022-09-09T10:56:25.001Z,22.65
2022-09-09T10:59:34.712Z,22.78
2022-09-09T11:02:18.570Z,22.76
2022-09-09T11:04:54.817Z,22.45
2022-09-09T11:07:48.891Z,22.34
2022-09-09T11:10:38.019Z,22.42
2022-09-09T11:13:16.899Z,22.22
2022-09-09T11:15:52.190Z,22.40
2022-09-09T11:18:24.512Z,22.58
2022-09-09T11:21:02.143Z,22.37
2022-09-09T11:23:41.801Z,22.17
2022-09-09T11:26:18.017Z,22.05
2022-09-09T11:29:18.814Z,21.96
2022-09-09T11:31:56.957Z,21.93
2022-09-09T11:34:37.445Z,22.23
2022-09-09T11:37:27.440Z,22.51
2022-09-09T11:40:25.007Z,22.76
2022-09-09T11:43:25.135Z,22.98
2022-09-09T11:46:00.175Z,23.06
2022-09-09T11:48:29.743Z,23.08
2022-09-09T11:51:02.248Z,23.10
2022-09-09T11:53:30.349Z,23.07
2022-09-09T11:56:34.859Z,23.05
2022-09-09T11:59:06.506Z,22.96
2022-09-09T12:01:34.085Z,23.04
2022-09-09T12:04:22.355Z,23.16
2022-09-09T12:06:54.521Z,23.28
2022-09-09T12:09:43.791Z,23.35
2022-09-09T12:12:14.574Z,23.28
2022-09-09T12:14:42.862Z,23.23
2022-09-09T12:17:40.912Z,23.11
2022-09-09T12:20:16.624Z,22.90
2022-09-09T12:23:11.574Z,22.83
2022-09-09T12:26:21.548Z,22.87
2022-09-09T12:29:10.772Z,22.84
2022-09-09T12:31:52.895Z,22.96
2022-09-09T12:34:39.047Z,23.01
2022-09-09T12:37:24.351Z,22.98
2022-09-09T12:40:01.006Z,23.15
2022-09-09T12:42:29.512Z,23.16
2022-09-09T12:45:01.170Z,23.28
2022-09-09T12:47:44.843Z,23.22
2022-09-09T12:50:38.613Z,23.14
2022-09-09T12:53:16.797Z,22.99
2022-09-09T12:56:11.493Z,22.92
2022-09-09T12:58:41.003Z,23.03
2022-09-09T13:01:23.664Z,23.10
2022-09-09T13:03:52.007Z,23.30
2022-09-09T13:06:39.945Z,23.42
2022-09-09T13:09:11.158Z,23.48
2022-09-09T13:11:40.933Z,23.30
2022-09-09T13:14:30.031Z,23.13
2022-09-09T13:17:00.708Z,23.09
2022-09-09T13:19:32.739Z,23.24
2022-09-09T13:22:00.499Z,23.32
2022-09-09T13:24:35.883Z,23.28
2022-09-09T13:27:32.607Z,23.12
2022-09-09T13:30:00.902Z,22.95
2022-09-09T13:32:29.666Z,22.85
2022-09-09T13:35:00.184Z,22.79
2022-09-09T13:37:39.537Z,22.75
2022-09-09T13:40:18.788Z,22.72
2022-09-09T13:42:46.777Z,22.71
2022-09-09T13:45:24.158Z,22.73
2022-09-09T13:47:53.728Z,22.83
2022-09-09T13:50:25.380Z,23.02
2022-09-09T13:53:00.382Z,23.23
2022-09-09T13:55:30.576Z,23.38
2022-09-09T13:58:01.698Z,23.47
2022-09-09T14:00:35.130Z,23.53
2022-09-09T14:03:03.227Z,23.57
2022-09-09T14:05:33.988Z,23.50
2022-09-09T14:08:04.261Z,23.43
2022-09-09T14:10:32.299Z,23.39
2022-09-09T14:13:00.025Z,23.42
2022-09-09T14:15:28.156Z,23.44
2022-09-09T14:17:56.104Z,23.39
2022-09-09T14:20:23.806Z,23.37
2022-09-09T14:22:51.556Z,23.23
2022-09-09T14:25:19.301Z,23.24
2022-09-09T14:27:47.107Z,23.13
2022-09-09T14:30:14.899Z,23.05
2022-09-09T14:32:42.760Z,22.98
2022-09-09T14:35:10.487Z,22.93
2022-09-09T14:37:40.210Z,22.92
2022-09-09T14:40:08.626Z,22.94
2022-09-09T14:42:36.367Z,23.01
2022-09-09T14:45:04.794Z,23.12
2022-09-09T14:47:33.318Z,23.24
2022-09-09T14:50:02.076Z,23.28
2022-09-09T14:52:31.312Z,23.27
2022-09-09T14:54:59.071Z,23.27
2022-09-09T14:57:26.793Z,23.12
2022-09-09T14:59:54.595Z,23.05
2022-09-09T15:02:22.460Z,23.06
2022-09-09T15:04:51.026Z,23.07
2022-09-09T15:07:20.559Z,23.07
2022-09-09T15:09:49.516Z,23.01
2022-09-09T15:12:19.864Z,22.94
2022-09-09T15:14:48.112Z,22.89
2022-09-09T15:17:15.904Z,22.81
2022-09-09T15:19:43.707Z,22.71
2022-09-09T15:22:11.555Z,22.65
2022-09-09T15:24:39.401Z,22.62
2022-09-09T15:27:07.160Z,22.55
2022-09-09T15:29:34.969Z,22.46
2022-09-09T15:32:03.095Z,22.41
2022-09-09T15:34:30.978Z,22.36
2022-09-09T15:37:01.050Z,22.33
2022-09-09T15:39:29.003Z,22.28
2022-09-09T15:41:57.742Z,22.23
2022-09-09T15:44:26.572Z,22.21
2022-09-09T15:46:57.568Z,22.18
2022-09-09T15:49:27.133Z,22.17
2022-09-09T15:51:58.440Z,22.15
2022-09-09T15:54:27.290Z,22.13
2022-09-09T15:56:57.329Z,22.12
2022-09-09T15:59:28.836Z,22.10
2022-09-09T16:01:57.680Z,22.08
2022-09-09T16:04:26.066Z,22.06
2022-09-09T16:07:03.058Z,22.03
2022-09-09T16:09:32.385Z,22.00
2022-09-09T16:12:07.489Z,21.97
2022-09-09T16:14:36.829Z,21.93
2022-09-09T16:17:06.395Z,21.90
2022-09-09T16:19:35.646Z,21.87
2022-09-09T16:22:05.107Z,21.85
2022-09-09T16:24:33.666Z,21.83
2022-09-09T16:27:01.459Z,21.81
2022-09-09T16:29:29.630Z,21.78
2022-09-09T16:32:02.726Z,21.74
2022-09-09T16:34:31.735Z,21.72
2022-09-09T16:36:59.465Z,21.67
2022-09-09T16:39:27.327Z,21.64
2022-09-09T16:41:55.198Z,21.60
2022-09-09T16:44:23.398Z,21.56
2022-09-09T16:46:58.146Z,21.54
2022-09-09T16:49:29.324Z,21.50
2022-09-09T16:51:59.776Z,21.46
2022-09-09T16:54:28.270Z,21.44
2022-09-09T16:56:56.297Z,21.41
2022-09-09T16:59:24.536Z,21.39
2022-09-09T17:01:53.325Z,21.35
2022-09-09T17:04:25.265Z,21.32
2022-09-09T17:06:54.974Z,21.26
2022-09-09T17:09:23.847Z,21.21
2022-09-09T17:11:53.236Z,21.16
2022-09-09T17:14:22.864Z,21.12
2022-09-09T17:16:50.844Z,21.08
2022-09-09T17:19:19.000Z,21.04
2022-09-09T17:24:39.599Z,20.96
2022-09-09T17:27:08.524Z,20.92
2022-09-09T17:29:37.006Z,20.87
2022-09-09T17:32:07.041Z,20.81
2022-09-09T17:34:35.916Z,20.78
2022-09-09T17:37:05.230Z,20.75
2022-09-09T17:39:34.047Z,20.70
2022-09-09T17:42:02.442Z,20.65
2022-09-09T17:44:33.328Z,20.62
2022-09-09T17:47:01.937Z,20.58
2022-09-09T17:49:29.676Z,20.56
2022-09-09T17:51:57.668Z,20.54
2022-09-09T17:54:25.739Z,20.52
2022-09-09T17:56:53.587Z,20.47
2022-09-09T17:59:21.369Z,20.44
2022-09-09T18:01:50.907Z,20.41
2022-09-09T18:04:20.475Z,20.37
2022-09-09T18:06:51.144Z,20.33
2022-09-09T18:09:23.395Z,20.28
2022-09-09T18:11:54.636Z,20.23
2022-09-09T18:14:26.363Z,20.17
2022-09-09T18:16:54.545Z,20.06
2022-09-09T18:19:25.553Z,19.92
2022-09-09T18:21:54.692Z,19.81
2022-09-09T18:24:23.522Z,19.72
2022-09-09T18:26:51.477Z,19.66
2022-09-09T18:29:23.615Z,19.62
2022-09-09T18:31:53.324Z,19.60
2022-09-09T18:34:22.878Z,19.58
2022-09-09T18:36:55.175Z,19.58
2022-09-09T18:39:27.573Z,19.55
2022-09-09T18:42:02.338Z,19.52
2022-09-09T18:44:33.394Z,19.51
2022-09-09T18:47:03.560Z,19.42
2022-09-09T18:49:33.477Z,19.38
2022-09-09T18:52:02.917Z,19.34
2022-09-09T18:54:33.399Z,19.31
2022-09-09T18:57:01.396Z,19.28
2022-09-09T18:59:30.247Z,19.26
2022-09-09T19:01:58.490Z,19.22
2022-09-09T19:04:27.679Z,19.18
2022-09-09T19:06:59.139Z,19.14
2022-09-09T19:09:31.187Z,19.07
2022-09-09T19:12:00.832Z,18.97
2022-09-09T19:14:30.245Z,18.91
2022-09-09T19:16:58.946Z,18.83
2022-09-09T19:19:30.579Z,18.76
2022-09-09T19:21:59.425Z,18.68
2022-09-09T19:24:30.383Z,18.64
2022-09-09T19:27:01.953Z,18.55
2022-09-09T19:29:33.158Z,18.51
2022-09-09T19:32:42.685Z,18.49
2022-09-09T19:34:51.998Z,18.48
2022-09-09T19:37:20.508Z,18.45
2022-09-09T19:39:49.830Z,18.45
2022-09-09T19:42:17.818Z,18.45
2022-09-09T19:44:46.496Z,18.45
2022-09-09T19:47:15.197Z,18.44
2022-09-09T19:49:46.992Z,18.41
2022-09-09T19:52:17.145Z,18.35
2022-09-09T19:54:46.873Z,18.30
2022-09-09T19:57:15.574Z,18.26
2022-09-09T19:59:43.331Z,18.24
2022-09-09T20:02:15.837Z,18.14
2022-09-09T20:04:44.581Z,18.09
2022-09-09T20:07:14.849Z,18.12
2022-09-09T20:09:42.588Z,18.10
2022-09-09T20:12:10.595Z,18.11
2022-09-09T20:14:39.883Z,18.10
2022-09-09T20:17:08.359Z,18.11
2022-09-09T20:19:36.136Z,18.11
2022-09-09T20:22:04.468Z,18.07
2022-09-09T20:24:32.347Z,18.09
2022-09-09T20:27:00.123Z,18.10
2022-09-09T20:29:27.930Z,18.09
2022-09-09T20:31:55.629Z,18.12
2022-09-09T20:34:25.802Z,18.12
2022-09-09T20:36:54.805Z,18.06
2022-09-09T20:39:22.665Z,17.98
2022-09-09T20:41:50.812Z,17.95
2022-09-09T20:44:22.910Z,17.95
2022-09-09T20:46:55.234Z,17.96
2022-09-09T20:49:24.370Z,18.00
2022-09-09T20:51:53.787Z,18.02
2022-09-09T20:54:26.916Z,18.04
2022-09-09T20:56:58.087Z,18.07
2022-09-09T20:59:31.281Z,18.12
2022-09-09T21:02:00.919Z,18.16
2022-09-09T21:04:29.470Z,18.18
2022-09-09T21:06:57.463Z,18.18
2022-09-09T21:09:25.294Z,18.17
2022-09-09T21:11:53.833Z,18.13
2022-09-09T21:14:22.512Z,18.08
2022-09-09T21:16:50.505Z,18.04
2022-09-09T21:19:18.711Z,18.05
2022-09-09T21:21:47.967Z,18.07
2022-09-09T21:24:16.837Z,18.08
2022-09-09T21:26:44.767Z,18.09
2022-09-09T21:29:13.199Z,18.08
2022-09-09T21:31:43.505Z,18.08
2022-09-09T21:34:13.326Z,18.05
2022-09-09T21:36:41.194Z,18.04
2022-09-09T21:39:09.038Z,18.03
2022-09-09T21:41:37.002Z,18.02
2022-09-09T21:44:04.777Z,17.98
2022-09-09T21:46:32.632Z,17.97
2022-09-09T21:49:03.462Z,17.94
2022-09-09T21:51:31.249Z,17.90
2022-09-09T21:53:59.537Z,17.85
2022-09-09T21:56:27.366Z,17.81
2022-09-09T21:58:57.691Z,17.83
2022-09-09T22:01:26.407Z,17.80
2022-09-09T22:03:55.037Z,17.77
2022-09-09T22:06:22.764Z,17.81
2022-09-09T22:08:51.069Z,17.85
2022-09-09T22:11:22.784Z,17.91
2022-09-09T22:13:51.121Z,17.99
2022-09-09T22:16:21.806Z,18.02
2022-09-09T22:18:56.826Z,18.02
2022-09-09T22:21:27.140Z,18.05
2022-09-09T22:23:57.889Z,18.09
2022-09-09T22:26:27.991Z,18.12
2022-09-09T22:28:57.425Z,18.15
2022-09-09T22:31:26.770Z,18.18
2022-09-09T22:33:54.766Z,18.21
2022-09-09T22:36:23.263Z,18.22
2022-09-09T22:38:51.481Z,18.22
2022-09-09T22:41:20.017Z,18.18
2022-09-09T22:43:48.632Z,18.14
2022-09-09T22:46:17.234Z,18.13
2022-09-09T22:48:44.951Z,18.11
2022-09-09T22:51:14.693Z,18.09
2022-09-09T22:53:44.783Z,18.08
2022-09-09T22:56:17.337Z,18.03
2022-09-09T22:58:46.846Z,18.02
2022-09-09T23:01:21.182Z,17.99
2022-09-09T23:03:50.548Z,18.01
2022-09-09T23:06:22.489Z,18.00
2022-09-09T23:09:02.238Z,18.00
2022-09-09T23:11:33.723Z,18.00
2022-09-09T23:14:03.185Z,18.00
2022-09-09T23:16:35.441Z,17.99
2022-09-09T23:19:03.726Z,17.98
2022-09-09T23:21:32.385Z,17.97
2022-09-09T23:24:00.712Z,17.97
2022-09-09T23:26:29.906Z,17.96
2022-09-09T23:28:59.841Z,17.95
2022-09-09T23:31:30.627Z,17.94
2022-09-09T23:34:02.786Z,17.89
2022-09-09T23:36:31.239Z,17.80
2022-09-09T23:39:02.132Z,17.74
2022-09-09T23:41:31.977Z,17.73
2022-09-09T23:44:00.908Z,17.67
2022-09-09T23:46:30.861Z,17.66
2022-09-09T23:48:59.982Z,17.66
2022-09-09T23:51:30.361Z,17.65
2022-09-09T23:54:01.968Z,17.65
2022-09-09T23:56:32.981Z,17.66
2022-09-09T23:59:01.237Z,17.64
